EZS47HC LDSP-LSGG
Flight info
| Callsign | EZS47HC |
|---|---|
| Flight time | 1h 20m |
| Altitude | 36000 |
| Route | ZDA DCT BAXON DCT SRN DCT OMETO DCT TERSI DCT AOSTA/N0355F220 L615 BANKO |
| Aircraft | A320/M-SDE2E3FGHIJ1RWXYZ/LB1 |
Departure
| Time | 2026-05-06 18:13 |
|---|---|
| Airport | Split Saint Jerome Airport (LDSP) |
Arrival
| Time | 2026-05-06 19:33 |
|---|---|
| Airport | Geneva International Airport (LSGG) |
| Time | Latitude | Longitude | Altitude | Speed | Heading |
|---|---|---|---|---|---|
| 2026-05-06 17:51 | 43.53657 | 16.29752 | 68 ft | 0 kts | 94° |
| 2026-05-06 18:05 | 43.53657 | 16.29740 | 62 ft | 2 kts | 99° |
| 2026-05-06 18:05 | 43.53665 | 16.29721 | 62 ft | 2 kts | 154° |
| 2026-05-06 18:05 | 43.53681 | 16.29711 | 61 ft | 2 kts | 154° |
| 2026-05-06 18:06 | 43.53696 | 16.29705 | 61 ft | 1 kts | 182° |
| 2026-05-06 18:06 | 43.53699 | 16.29705 | 61 ft | 0 kts | 185° |
| 2026-05-06 18:06 | 43.53706 | 16.29705 | 62 ft | 2 kts | 215° |
| 2026-05-06 18:06 | 43.53712 | 16.29711 | 61 ft | 0 kts | 229° |
| 2026-05-06 18:09 | 43.53711 | 16.29709 | 68 ft | 2 kts | 229° |
| 2026-05-06 18:09 | 43.53685 | 16.29647 | 61 ft | 12 kts | 261° |
| 2026-05-06 18:09 | 43.53695 | 16.29540 | 73 ft | 7 kts | 275° |
| 2026-05-06 18:09 | 43.53696 | 16.29512 | 78 ft | 4 kts | 270° |
| 2026-05-06 18:10 | 43.53677 | 16.29407 | 80 ft | 20 kts | 243° |
| 2026-05-06 18:10 | 43.53574 | 16.29220 | 83 ft | 25 kts | 232° |
| 2026-05-06 18:10 | 43.53461 | 16.29020 | 86 ft | 30 kts | 232° |
| 2026-05-06 18:10 | 43.53355 | 16.28823 | 86 ft | 22 kts | 233° |
| 2026-05-06 18:11 | 43.53272 | 16.28676 | 87 ft | 16 kts | 232° |
| 2026-05-06 18:11 | 43.53214 | 16.28621 | 84 ft | 10 kts | 197° |
| 2026-05-06 18:11 | 43.53211 | 16.28563 | 85 ft | 6 kts | 356° |
| 2026-05-06 18:11 | 43.53235 | 16.28602 | 86 ft | 5 kts | 60° |
| 2026-05-06 18:12 | 43.53264 | 16.28657 | 84 ft | 13 kts | 54° |
| 2026-05-06 18:12 | 43.53451 | 16.29001 | 87 ft | 80 kts | 52° |
| 2026-05-06 18:12 | 43.53919 | 16.29843 | 83 ft | 139 kts | 53° |
| 2026-05-06 18:12 | 43.54552 | 16.31000 | 395 ft | 157 kts | 63° |
| 2026-05-06 18:13 | 43.54864 | 16.32484 | 878 ft | 171 kts | 91° |
| 2026-05-06 18:13 | 43.54493 | 16.34085 | 1412 ft | 185 kts | 123° |
| 2026-05-06 18:13 | 43.53669 | 16.35439 | 2230 ft | 179 kts | 133° |
| 2026-05-06 18:13 | 43.52655 | 16.36405 | 2970 ft | 179 kts | 152° |
| 2026-05-06 18:14 | 43.51376 | 16.36736 | 3300 ft | 204 kts | 186° |
| 2026-05-06 18:14 | 43.50071 | 16.35734 | 3607 ft | 237 kts | 226° |
| 2026-05-06 18:14 | 43.49425 | 16.33518 | 4077 ft | 267 kts | 264° |
| 2026-05-06 18:14 | 43.49891 | 16.30988 | 4949 ft | 283 kts | 296° |
| 2026-05-06 18:15 | 43.51088 | 16.28894 | 6091 ft | 277 kts | 312° |
| 2026-05-06 18:15 | 43.52511 | 16.27063 | 6877 ft | 282 kts | 316° |
| 2026-05-06 18:15 | 43.53984 | 16.25262 | 7699 ft | 284 kts | 314° |
| 2026-05-06 18:15 | 43.55426 | 16.23390 | 8517 ft | 285 kts | 311° |
| 2026-05-06 18:16 | 43.56814 | 16.21438 | 9342 ft | 286 kts | 310° |
| 2026-05-06 18:16 | 43.58170 | 16.19411 | 10160 ft | 289 kts | 309° |
| 2026-05-06 18:16 | 43.59535 | 16.17286 | 10539 ft | 307 kts | 309° |
| 2026-05-06 18:16 | 43.60980 | 16.14982 | 10713 ft | 330 kts | 308° |
| 2026-05-06 18:17 | 43.62527 | 16.12497 | 10850 ft | 353 kts | 307° |
| 2026-05-06 18:17 | 43.64156 | 16.09867 | 11178 ft | 367 kts | 307° |
| 2026-05-06 18:17 | 43.65831 | 16.07177 | 11804 ft | 370 kts | 307° |
| 2026-05-06 18:17 | 43.67525 | 16.04467 | 12446 ft | 374 kts | 308° |
| 2026-05-06 18:18 | 43.69240 | 16.01726 | 13085 ft | 379 kts | 308° |
| 2026-05-06 18:18 | 43.70969 | 15.98960 | 13745 ft | 382 kts | 307° |
| 2026-05-06 18:18 | 43.72714 | 15.96168 | 14363 ft | 385 kts | 307° |
| 2026-05-06 18:18 | 43.74447 | 15.93386 | 14928 ft | 389 kts | 307° |
| 2026-05-06 18:19 | 43.76217 | 15.90534 | 15482 ft | 392 kts | 307° |
| 2026-05-06 18:19 | 43.77998 | 15.87660 | 16032 ft | 396 kts | 307° |
| 2026-05-06 18:19 | 43.79800 | 15.84749 | 16569 ft | 400 kts | 307° |
| 2026-05-06 18:19 | 43.81618 | 15.81811 | 17153 ft | 403 kts | 307° |
| 2026-05-06 18:20 | 43.83448 | 15.78856 | 17672 ft | 407 kts | 307° |
| 2026-05-06 18:20 | 43.85300 | 15.75866 | 18203 ft | 410 kts | 307° |
| 2026-05-06 18:20 | 43.87169 | 15.72851 | 18665 ft | 414 kts | 307° |
| 2026-05-06 18:20 | 43.89046 | 15.69814 | 19142 ft | 416 kts | 307° |
| 2026-05-06 18:21 | 43.90926 | 15.66769 | 19628 ft | 417 kts | 307° |
| 2026-05-06 18:21 | 43.92818 | 15.63702 | 20122 ft | 419 kts | 306° |
| 2026-05-06 18:21 | 43.94717 | 15.60619 | 20570 ft | 421 kts | 306° |
| 2026-05-06 18:21 | 43.96624 | 15.57520 | 21020 ft | 423 kts | 306° |
| 2026-05-06 18:22 | 43.98535 | 15.54411 | 21466 ft | 424 kts | 306° |
| 2026-05-06 18:22 | 44.00455 | 15.51284 | 21898 ft | 426 kts | 306° |
| 2026-05-06 18:22 | 44.02375 | 15.48151 | 22312 ft | 427 kts | 306° |
| 2026-05-06 18:22 | 44.04303 | 15.44993 | 22713 ft | 429 kts | 306° |
| 2026-05-06 18:23 | 44.06237 | 15.41821 | 23094 ft | 431 kts | 306° |
| 2026-05-06 18:23 | 44.08046 | 15.38520 | 23478 ft | 428 kts | 298° |
| 2026-05-06 18:23 | 44.09471 | 15.34898 | 23815 ft | 426 kts | 290° |
| 2026-05-06 18:23 | 44.10482 | 15.31041 | 24106 ft | 423 kts | 282° |
| 2026-05-06 18:24 | 44.11189 | 15.27075 | 24402 ft | 424 kts | 280° |
| 2026-05-06 18:24 | 44.11889 | 15.23081 | 24702 ft | 425 kts | 280° |
| 2026-05-06 18:24 | 44.12595 | 15.19075 | 24984 ft | 427 kts | 280° |
| 2026-05-06 18:24 | 44.13303 | 15.15081 | 25271 ft | 428 kts | 280° |
| 2026-05-06 18:25 | 44.14016 | 15.11052 | 25539 ft | 429 kts | 280° |
| 2026-05-06 18:25 | 44.14726 | 15.07020 | 25801 ft | 430 kts | 280° |
| 2026-05-06 18:25 | 44.15439 | 15.02965 | 26053 ft | 432 kts | 280° |
| 2026-05-06 18:25 | 44.16154 | 14.98898 | 26304 ft | 433 kts | 279° |
| 2026-05-06 18:26 | 44.16868 | 14.94817 | 26554 ft | 434 kts | 279° |
| 2026-05-06 18:26 | 44.17578 | 14.90738 | 26786 ft | 435 kts | 279° |
| 2026-05-06 18:26 | 44.18287 | 14.86640 | 27048 ft | 434 kts | 279° |
| 2026-05-06 18:26 | 44.18991 | 14.82552 | 27369 ft | 433 kts | 279° |
| 2026-05-06 18:27 | 44.19691 | 14.78486 | 27683 ft | 432 kts | 279° |
| 2026-05-06 18:27 | 44.20391 | 14.74421 | 28020 ft | 430 kts | 279° |
| 2026-05-06 18:27 | 44.21088 | 14.70367 | 28347 ft | 429 kts | 279° |
| 2026-05-06 18:27 | 44.21781 | 14.66325 | 28684 ft | 428 kts | 278° |
| 2026-05-06 18:28 | 44.22470 | 14.62305 | 29025 ft | 427 kts | 278° |
| 2026-05-06 18:28 | 44.23160 | 14.58285 | 29357 ft | 425 kts | 278° |
| 2026-05-06 18:28 | 44.23845 | 14.54284 | 29697 ft | 424 kts | 278° |
| 2026-05-06 18:28 | 44.24526 | 14.50286 | 30034 ft | 423 kts | 278° |
| 2026-05-06 18:29 | 44.25191 | 14.46353 | 30328 ft | 421 kts | 278° |
| 2026-05-06 18:29 | 44.25871 | 14.42335 | 30633 ft | 420 kts | 278° |
| 2026-05-06 18:29 | 44.26539 | 14.38381 | 30939 ft | 418 kts | 278° |
| 2026-05-06 18:29 | 44.27202 | 14.34446 | 31253 ft | 416 kts | 278° |
| 2026-05-06 18:30 | 44.27851 | 14.30576 | 31566 ft | 414 kts | 277° |
| 2026-05-06 18:30 | 44.28505 | 14.26668 | 31881 ft | 413 kts | 277° |
| 2026-05-06 18:30 | 44.29154 | 14.22778 | 32170 ft | 411 kts | 277° |
| 2026-05-06 18:30 | 44.29803 | 14.18892 | 32465 ft | 410 kts | 277° |
| 2026-05-06 18:31 | 44.30449 | 14.15019 | 32754 ft | 409 kts | 277° |
| 2026-05-06 18:31 | 44.31092 | 14.11156 | 33049 ft | 408 kts | 277° |
| 2026-05-06 18:31 | 44.31733 | 14.07304 | 33334 ft | 406 kts | 277° |
| 2026-05-06 18:31 | 44.32370 | 14.03471 | 33642 ft | 405 kts | 278° |
| 2026-05-06 18:32 | 44.33006 | 13.99621 | 33815 ft | 408 kts | 277° |
| 2026-05-06 18:32 | 44.33639 | 13.95759 | 34003 ft | 409 kts | 277° |
| 2026-05-06 18:32 | 44.34273 | 13.91882 | 34232 ft | 409 kts | 277° |
| 2026-05-06 18:32 | 44.34903 | 13.88015 | 34432 ft | 410 kts | 277° |
| 2026-05-06 18:33 | 44.35535 | 13.84139 | 34643 ft | 410 kts | 277° |
| 2026-05-06 18:33 | 44.36168 | 13.80249 | 34866 ft | 409 kts | 277° |
| 2026-05-06 18:33 | 44.36799 | 13.76369 | 35070 ft | 409 kts | 277° |
| 2026-05-06 18:33 | 44.37429 | 13.72489 | 35283 ft | 409 kts | 277° |
| 2026-05-06 18:34 | 44.38057 | 13.68625 | 35469 ft | 408 kts | 278° |
| 2026-05-06 18:34 | 44.38686 | 13.64753 | 35663 ft | 408 kts | 278° |
| 2026-05-06 18:34 | 44.39308 | 13.60903 | 35854 ft | 408 kts | 278° |
| 2026-05-06 18:34 | 44.39719 | 13.58340 | 35937 ft | 409 kts | 277° |
| 2026-05-06 18:35 | 44.40964 | 13.50543 | 35937 ft | 412 kts | 277° |
| 2026-05-06 18:35 | 44.42686 | 13.42844 | 35934 ft | 420 kts | 287° |
| 2026-05-06 18:36 | 44.44969 | 13.35326 | 35939 ft | 420 kts | 287° |
| 2026-05-06 18:36 | 44.47230 | 13.27782 | 35927 ft | 420 kts | 287° |
| 2026-05-06 18:37 | 44.49489 | 13.20243 | 35950 ft | 420 kts | 287° |
| 2026-05-06 18:37 | 44.51750 | 13.12686 | 35934 ft | 421 kts | 287° |
| 2026-05-06 18:38 | 44.54006 | 13.05116 | 35932 ft | 421 kts | 286° |
| 2026-05-06 18:38 | 44.56254 | 12.97549 | 35933 ft | 421 kts | 286° |
| 2026-05-06 18:39 | 44.58502 | 12.89960 | 35962 ft | 421 kts | 286° |
| 2026-05-06 18:40 | 44.61854 | 12.78615 | 35946 ft | 420 kts | 286° |
| 2026-05-06 18:40 | 44.64083 | 12.71041 | 35944 ft | 419 kts | 286° |
| 2026-05-06 18:41 | 44.66301 | 12.63470 | 35935 ft | 419 kts | 286° |
| 2026-05-06 18:41 | 44.68511 | 12.55887 | 35956 ft | 419 kts | 286° |
| 2026-05-06 18:42 | 44.70718 | 12.48307 | 35956 ft | 419 kts | 285° |
| 2026-05-06 18:42 | 44.72930 | 12.40710 | 35944 ft | 420 kts | 285° |
| 2026-05-06 18:43 | 44.75138 | 12.33112 | 35940 ft | 420 kts | 285° |
| 2026-05-06 18:43 | 44.77334 | 12.25510 | 35936 ft | 420 kts | 285° |
| 2026-05-06 18:44 | 44.79523 | 12.17894 | 35950 ft | 420 kts | 285° |
| 2026-05-06 18:44 | 44.81714 | 12.10247 | 35937 ft | 421 kts | 285° |
| 2026-05-06 18:45 | 44.83908 | 12.02584 | 35929 ft | 422 kts | 285° |
| 2026-05-06 18:45 | 44.86101 | 11.94909 | 35927 ft | 422 kts | 285° |
| 2026-05-06 18:46 | 44.88284 | 11.87225 | 35958 ft | 423 kts | 285° |
| 2026-05-06 18:46 | 44.90465 | 11.79519 | 35948 ft | 423 kts | 285° |
| 2026-05-06 18:47 | 44.92639 | 11.71821 | 35944 ft | 423 kts | 285° |
| 2026-05-06 18:47 | 44.94812 | 11.64117 | 35943 ft | 423 kts | 285° |
| 2026-05-06 18:48 | 44.96976 | 11.56402 | 35943 ft | 423 kts | 285° |
| 2026-05-06 18:48 | 44.99136 | 11.48679 | 35949 ft | 422 kts | 284° |
| 2026-05-06 18:49 | 45.01290 | 11.40980 | 35953 ft | 422 kts | 284° |
| 2026-05-06 18:49 | 45.03435 | 11.33250 | 35942 ft | 422 kts | 284° |
| 2026-05-06 18:50 | 45.05571 | 11.25518 | 35936 ft | 423 kts | 284° |
| 2026-05-06 18:50 | 45.07705 | 11.17823 | 35931 ft | 423 kts | 284° |
| 2026-05-06 18:51 | 45.09844 | 11.10072 | 35932 ft | 423 kts | 284° |
| 2026-05-06 18:51 | 45.11984 | 11.02304 | 35932 ft | 423 kts | 284° |
| 2026-05-06 18:52 | 45.14115 | 10.94534 | 35934 ft | 423 kts | 284° |
| 2026-05-06 18:52 | 45.16230 | 10.86761 | 35931 ft | 423 kts | 284° |
| 2026-05-06 18:53 | 45.18340 | 10.78994 | 35948 ft | 423 kts | 283° |
| 2026-05-06 18:53 | 45.20449 | 10.71218 | 35918 ft | 422 kts | 283° |
| 2026-05-06 18:54 | 45.22549 | 10.63446 | 35911 ft | 422 kts | 283° |
| 2026-05-06 18:54 | 45.24646 | 10.55662 | 35907 ft | 422 kts | 283° |
| 2026-05-06 18:55 | 45.26730 | 10.47886 | 35903 ft | 422 kts | 283° |
| 2026-05-06 18:55 | 45.28813 | 10.40092 | 35924 ft | 422 kts | 283° |
| 2026-05-06 18:56 | 45.30897 | 10.32300 | 35937 ft | 422 kts | 283° |
| 2026-05-06 18:56 | 45.32970 | 10.24495 | 35848 ft | 422 kts | 283° |
| 2026-05-06 18:57 | 45.35039 | 10.16691 | 35843 ft | 422 kts | 283° |
| 2026-05-06 18:57 | 45.37106 | 10.08874 | 35855 ft | 422 kts | 283° |
| 2026-05-06 18:58 | 45.39170 | 10.01048 | 35851 ft | 423 kts | 283° |
| 2026-05-06 18:58 | 45.41223 | 9.93184 | 35849 ft | 424 kts | 283° |
| 2026-05-06 18:59 | 45.43277 | 9.85319 | 35874 ft | 424 kts | 283° |
| 2026-05-06 18:59 | 45.45334 | 9.77439 | 35978 ft | 424 kts | 283° |
| 2026-05-06 19:00 | 45.47386 | 9.69560 | 36032 ft | 424 kts | 283° |
| 2026-05-06 19:00 | 45.49430 | 9.61662 | 36062 ft | 424 kts | 283° |
| 2026-05-06 19:01 | 45.51461 | 9.53771 | 36063 ft | 424 kts | 283° |
| 2026-05-06 19:01 | 45.53491 | 9.45880 | 36056 ft | 424 kts | 283° |
| 2026-05-06 19:02 | 45.55517 | 9.37970 | 36081 ft | 424 kts | 283° |
| 2026-05-06 19:02 | 45.56528 | 9.34012 | 35899 ft | 425 kts | 283° |
| 2026-05-06 19:02 | 45.57554 | 9.29983 | 35890 ft | 426 kts | 283° |
| 2026-05-06 19:03 | 45.59580 | 9.22036 | 35892 ft | 427 kts | 283° |
| 2026-05-06 19:03 | 45.61604 | 9.14051 | 35902 ft | 427 kts | 283° |
| 2026-05-06 19:04 | 45.63611 | 9.06061 | 35888 ft | 428 kts | 283° |
| 2026-05-06 19:04 | 45.65015 | 8.97921 | 35893 ft | 418 kts | 272° |
| 2026-05-06 19:05 | 45.65804 | 8.89673 | 35888 ft | 419 kts | 272° |
| 2026-05-06 19:05 | 45.66586 | 8.81464 | 35888 ft | 420 kts | 272° |
| 2026-05-06 19:06 | 45.67379 | 8.73194 | 35891 ft | 420 kts | 272° |
| 2026-05-06 19:06 | 45.68159 | 8.64926 | 35891 ft | 420 kts | 272° |
| 2026-05-06 19:07 | 45.68933 | 8.56631 | 35898 ft | 421 kts | 272° |
| 2026-05-06 19:07 | 45.69705 | 8.48326 | 35889 ft | 422 kts | 272° |
| 2026-05-06 19:08 | 45.70471 | 8.40011 | 35896 ft | 422 kts | 272° |
| 2026-05-06 19:08 | 45.71234 | 8.31617 | 35890 ft | 422 kts | 272° |
| 2026-05-06 19:09 | 45.71981 | 8.23331 | 35923 ft | 423 kts | 272° |
| 2026-05-06 19:09 | 45.72726 | 8.14966 | 35898 ft | 424 kts | 272° |
| 2026-05-06 19:10 | 45.73461 | 8.06572 | 35891 ft | 425 kts | 272° |
| 2026-05-06 19:10 | 45.74207 | 7.98177 | 35884 ft | 425 kts | 272° |
| 2026-05-06 19:11 | 45.74955 | 7.89768 | 35888 ft | 426 kts | 272° |
| 2026-05-06 19:11 | 45.75687 | 7.81351 | 35904 ft | 427 kts | 272° |
| 2026-05-06 19:12 | 45.76409 | 7.72911 | 35891 ft | 428 kts | 272° |
| 2026-05-06 19:12 | 45.77134 | 7.64453 | 35890 ft | 428 kts | 272° |
| 2026-05-06 19:13 | 45.77856 | 7.55974 | 35891 ft | 429 kts | 272° |
| 2026-05-06 19:13 | 45.78573 | 7.47493 | 35915 ft | 429 kts | 272° |
| 2026-05-06 19:14 | 45.79277 | 7.39004 | 35669 ft | 429 kts | 272° |
| 2026-05-06 19:14 | 45.79625 | 7.34757 | 35425 ft | 429 kts | 272° |
| 2026-05-06 19:14 | 45.79972 | 7.30510 | 35184 ft | 429 kts | 272° |
| 2026-05-06 19:14 | 45.80321 | 7.26275 | 34944 ft | 429 kts | 272° |
| 2026-05-06 19:15 | 45.80672 | 7.22026 | 34310 ft | 431 kts | 271° |
| 2026-05-06 19:15 | 45.81020 | 7.17733 | 33262 ft | 435 kts | 271° |
| 2026-05-06 19:15 | 45.81365 | 7.13432 | 32285 ft | 435 kts | 271° |
| 2026-05-06 19:15 | 45.81825 | 7.09119 | 31287 ft | 442 kts | 278° |
| 2026-05-06 19:16 | 45.82761 | 7.04889 | 30280 ft | 449 kts | 288° |
| 2026-05-06 19:16 | 45.84201 | 7.00859 | 28964 ft | 460 kts | 298° |
| 2026-05-06 19:16 | 45.86004 | 6.97078 | 27800 ft | 461 kts | 301° |
| 2026-05-06 19:16 | 45.87832 | 6.93291 | 26580 ft | 462 kts | 301° |
| 2026-05-06 19:17 | 45.89041 | 6.90771 | 25756 ft | 462 kts | 301° |
| 2026-05-06 19:17 | 45.90843 | 6.86996 | 24540 ft | 451 kts | 301° |
| 2026-05-06 19:17 | 45.92587 | 6.83326 | 23391 ft | 438 kts | 302° |
| 2026-05-06 19:17 | 45.94274 | 6.79762 | 22225 ft | 426 kts | 302° |
| 2026-05-06 19:18 | 45.95925 | 6.76269 | 21434 ft | 421 kts | 302° |
| 2026-05-06 19:18 | 45.97552 | 6.72793 | 20653 ft | 417 kts | 302° |
| 2026-05-06 19:18 | 45.99150 | 6.69346 | 19860 ft | 412 kts | 302° |
| 2026-05-06 19:18 | 46.00733 | 6.65912 | 19086 ft | 412 kts | 302° |
| 2026-05-06 19:19 | 46.02312 | 6.62472 | 18324 ft | 412 kts | 302° |
| 2026-05-06 19:19 | 46.03891 | 6.59034 | 17513 ft | 410 kts | 302° |
| 2026-05-06 19:19 | 46.05456 | 6.55632 | 16793 ft | 406 kts | 302° |
| 2026-05-06 19:19 | 46.07022 | 6.52276 | 16337 ft | 398 kts | 302° |
| 2026-05-06 19:20 | 46.08548 | 6.49051 | 16187 ft | 379 kts | 303° |
| 2026-05-06 19:20 | 46.09981 | 6.46045 | 16056 ft | 351 kts | 303° |
| 2026-05-06 19:20 | 46.11316 | 6.43252 | 15923 ft | 326 kts | 302° |
| 2026-05-06 19:20 | 46.12575 | 6.40599 | 15622 ft | 310 kts | 302° |
| 2026-05-06 19:21 | 46.13755 | 6.38098 | 15347 ft | 304 kts | 302° |
| 2026-05-06 19:21 | 46.14941 | 6.35577 | 15104 ft | 304 kts | 302° |
| 2026-05-06 19:21 | 46.16215 | 6.33105 | 14853 ft | 303 kts | 310° |
| 2026-05-06 19:21 | 46.17784 | 6.31147 | 14602 ft | 305 kts | 326° |
| 2026-05-06 19:22 | 46.19752 | 6.30014 | 14357 ft | 308 kts | 348° |
| 2026-05-06 19:22 | 46.21877 | 6.30116 | 14121 ft | 312 kts | 13° |
| 2026-05-06 19:22 | 46.23805 | 6.31462 | 13882 ft | 315 kts | 37° |
| 2026-05-06 19:22 | 46.25411 | 6.33656 | 13402 ft | 321 kts | 44° |
| 2026-05-06 19:23 | 46.26974 | 6.35955 | 13004 ft | 318 kts | 45° |
| 2026-05-06 19:23 | 46.28515 | 6.38246 | 12295 ft | 316 kts | 45° |
| 2026-05-06 19:23 | 46.30035 | 6.40505 | 11677 ft | 312 kts | 45° |
| 2026-05-06 19:23 | 46.31542 | 6.42741 | 11103 ft | 309 kts | 45° |
| 2026-05-06 19:24 | 46.33035 | 6.44958 | 10604 ft | 306 kts | 45° |
| 2026-05-06 19:24 | 46.34518 | 6.47160 | 10086 ft | 306 kts | 45° |
| 2026-05-06 19:24 | 46.36013 | 6.49380 | 9614 ft | 308 kts | 45° |
| 2026-05-06 19:24 | 46.37489 | 6.51492 | 9468 ft | 286 kts | 37° |
| 2026-05-06 19:25 | 46.39201 | 6.52660 | 9198 ft | 265 kts | 5° |
| 2026-05-06 19:25 | 46.40958 | 6.52450 | 9004 ft | 252 kts | 336° |
| 2026-05-06 19:25 | 46.42461 | 6.51260 | 8704 ft | 244 kts | 317° |
| 2026-05-06 19:25 | 46.43620 | 6.49511 | 8346 ft | 239 kts | 300° |
| 2026-05-06 19:26 | 46.44370 | 6.47368 | 7807 ft | 242 kts | 284° |
| 2026-05-06 19:26 | 46.44643 | 6.44937 | 7207 ft | 246 kts | 266° |
| 2026-05-06 19:26 | 46.44388 | 6.42572 | 6907 ft | 230 kts | 250° |
| 2026-05-06 19:26 | 46.43729 | 6.40549 | 6664 ft | 217 kts | 236° |
| 2026-05-06 19:27 | 46.42780 | 6.38920 | 6399 ft | 207 kts | 226° |
| 2026-05-06 19:27 | 46.41795 | 6.37460 | 6124 ft | 198 kts | 226° |
| 2026-05-06 19:27 | 46.40865 | 6.36078 | 5897 ft | 186 kts | 226° |
| 2026-05-06 19:27 | 46.39967 | 6.34745 | 5619 ft | 184 kts | 226° |
| 2026-05-06 19:28 | 46.39071 | 6.33417 | 5346 ft | 185 kts | 225° |
| 2026-05-06 19:28 | 46.38165 | 6.32075 | 5099 ft | 186 kts | 225° |
| 2026-05-06 19:28 | 46.37277 | 6.30760 | 4852 ft | 177 kts | 225° |
| 2026-05-06 19:28 | 46.36452 | 6.29539 | 4616 ft | 163 kts | 225° |
| 2026-05-06 19:29 | 46.35705 | 6.28434 | 4421 ft | 146 kts | 225° |
| 2026-05-06 19:29 | 46.35008 | 6.27404 | 4222 ft | 141 kts | 225° |
| 2026-05-06 19:29 | 46.34330 | 6.26401 | 4031 ft | 139 kts | 225° |
| 2026-05-06 19:29 | 46.33656 | 6.25407 | 3846 ft | 138 kts | 225° |
| 2026-05-06 19:30 | 46.32986 | 6.24417 | 3655 ft | 137 kts | 225° |
| 2026-05-06 19:30 | 46.32327 | 6.23443 | 3476 ft | 137 kts | 225° |
| 2026-05-06 19:30 | 46.31651 | 6.22446 | 3289 ft | 136 kts | 225° |
| 2026-05-06 19:30 | 46.30989 | 6.21470 | 3107 ft | 136 kts | 225° |
| 2026-05-06 19:31 | 46.30329 | 6.20497 | 2922 ft | 136 kts | 225° |
| 2026-05-06 19:31 | 46.29665 | 6.19518 | 2726 ft | 136 kts | 226° |
| 2026-05-06 19:31 | 46.28345 | 6.17574 | 2344 ft | 136 kts | 226° |
| 2026-05-06 19:32 | 46.27679 | 6.16593 | 2152 ft | 137 kts | 228° |
| 2026-05-06 19:32 | 46.27003 | 6.15597 | 1942 ft | 139 kts | 227° |
| 2026-05-06 19:32 | 46.26333 | 6.14617 | 1742 ft | 138 kts | 225° |
| 2026-05-06 19:32 | 46.25660 | 6.13624 | 1568 ft | 139 kts | 227° |
| 2026-05-06 19:33 | 46.24993 | 6.12638 | 1396 ft | 137 kts | 226° |
| 2026-05-06 19:33 | 46.24387 | 6.11747 | 1369 ft | 105 kts | 226° |
| 2026-05-06 19:33 | 46.24011 | 6.11192 | 1377 ft | 44 kts | 225° |
| 2026-05-06 19:33 | 46.23877 | 6.11076 | 1378 ft | 13 kts | 179° |
| 2026-05-06 19:34 | 46.23775 | 6.11085 | 1378 ft | 13 kts | 171° |
| 2026-05-06 19:34 | 46.23743 | 6.11091 | 1379 ft | 0 kts | 176° |
| 2026-05-06 19:37 | 46.23728 | 6.11090 | 1379 ft | 5 kts | 188° |